Time,TemperatureF,DewpointF,PressureIn,WindDirection,WindDirectionDegrees,WindSpeedMPH,WindSpeedGustMPH,Humidity,HourlyPrecipIn,Conditions,Clouds,dailyrainin,SoftwareType,DateUTC
2016-02-07 00:02:00,33.1,27.6,29.54,SW,225,0.0,6.0,80,0.00,,BKN018,0.00,VWS V15.00,2016-02-07 06:02:00,
2016-02-07 00:08:00,32.9,27.4,29.54,SW,228,6.0,11.0,80,0.00,,BKN018,0.00,VWS V15.00,2016-02-07 06:08:00,
2016-02-07 00:13:00,32.8,27.3,29.54,WSW,245,0.0,11.0,80,0.00,,BKN018,0.00,VWS V15.00,2016-02-07 06:13:00,
2016-02-07 00:18:00,32.7,27.5,29.54,SE,136,0.0,11.0,81,0.00,,BKN018,0.00,VWS V15.00,2016-02-07 06:18:00,
2016-02-07 00:23:00,32.5,27.3,29.54,WSW,243,2.0,11.0,81,0.00,,BKN018,0.00,VWS V15.00,2016-02-07 06:23:00,
2016-02-07 00:28:00,32.4,27.2,29.54,SW,235,3.0,11.0,81,0.00,,BKN018,0.00,VWS V15.00,2016-02-07 06:28:00,
2016-02-07 00:33:00,32.2,27.0,29.56,WSW,254,1.0,5.0,81,0.00,,BKN018,0.00,VWS V15.00,2016-02-07 06:33:00,
2016-02-07 00:38:00,32.2,27.0,29.56,West,270,1.0,8.0,81,0.00,,BKN018,0.00,VWS V15.00,2016-02-07 06:38:00,
2016-02-07 00:43:00,32.1,26.9,29.56,SW,228,3.0,8.0,81,0.00,,BKN018,0.00,VWS V15.00,2016-02-07 06:43:00,
2016-02-07 00:48:00,32.1,26.9,29.56,SE,127,2.0,8.0,81,0.00,,BKN018,0.00,VWS V15.00,2016-02-07 06:48:00,
2016-02-07 00:53:00,31.9,27.0,29.56,SW,218,0.0,10.0,82,0.00,,BKN018,0.00,VWS V15.00,2016-02-07 06:53:00,
2016-02-07 00:58:00,31.9,27.0,29.56,SW,216,2.0,11.0,82,0.00,,BKN018,0.00,VWS V15.00,2016-02-07 06:58:00,
2016-02-07 01:03:00,31.9,27.0,29.55,WSW,242,6.0,8.0,82,0.00,,BKN018,0.00,VWS V15.00,2016-02-07 07:03:00,
2016-02-07 01:08:00,31.9,27.0,29.55,WSW,246,2.0,10.0,82,0.00,,BKN018,0.00,VWS V15.00,2016-02-07 07:08:00,
2016-02-07 01:13:00,31.8,26.9,29.55,South,175,0.0,10.0,82,0.00,,BKN018,0.00,VWS V15.00,2016-02-07 07:13:00,
2016-02-07 01:18:00,31.8,26.9,29.54,South,174,5.0,10.0,82,0.00,,BKN018,0.00,VWS V15.00,2016-02-07 07:18:00,
2016-02-07 01:23:00,31.8,26.9,29.54,SSE,160,2.0,10.0,82,0.00,,BKN018,0.00,VWS V15.00,2016-02-07 07:23:00,
2016-02-07 01:28:00,31.8,26.9,29.54,SE,144,6.0,11.0,82,0.00,,BKN018,0.00,VWS V15.00,2016-02-07 07:28:00,
2016-02-07 01:33:00,31.8,26.9,29.52,SE,139,0.0,11.0,82,0.00,,BKN018,0.00,VWS V15.00,2016-02-07 07:33:00,
2016-02-07 01:38:00,31.8,26.9,29.52,SSW,208,0.0,11.0,82,0.00,,BKN018,0.00,VWS V15.00,2016-02-07 07:38:00,
2016-02-07 01:43:00,31.8,27.2,29.52,SE,139,4.0,11.0,83,0.00,,BKN018,0.00,VWS V15.00,2016-02-07 07:43:00,
2016-02-07 01:48:00,31.8,26.9,29.51,South,174,0.0,11.0,82,0.00,,BKN018,0.00,VWS V15.00,2016-02-07 07:48:00,
2016-02-07 01:53:00,31.8,27.2,29.51,WSW,249,5.0,11.0,83,0.00,,BKN018,0.00,VWS V15.00,2016-02-07 07:53:00,
2016-02-07 01:58:00,31.8,27.2,29.51,ESE,116,0.0,11.0,83,0.00,,BKN018,0.00,VWS V15.00,2016-02-07 07:58:00,
2016-02-07 02:03:00,31.8,27.2,29.52,SW,221,3.0,10.0,83,0.00,,BKN018,0.00,VWS V15.00,2016-02-07 08:03:00,
2016-02-07 02:08:00,31.8,27.2,29.52,SE,125,11.0,11.0,83,0.00,,BKN018,0.00,VWS V15.00,2016-02-07 08:08:00,
2016-02-07 02:13:00,31.8,27.2,29.52,ESE,116,4.0,11.0,83,0.00,,BKN018,0.00,VWS V15.00,2016-02-07 08:13:00,
2016-02-07 02:23:00,31.8,27.2,29.51,WSW,247,2.0,11.0,83,0.00,,BKN018,0.00,VWS V15.00,2016-02-07 08:23:00,
2016-02-07 02:28:00,31.8,27.2,29.51,WSW,238,5.0,11.0,83,0.00,,BKN018,0.00,VWS V15.00,2016-02-07 08:28:00,
2016-02-07 02:33:00,31.8,27.2,29.51,SW,218,2.0,6.0,83,0.00,,BKN018,0.00,VWS V15.00,2016-02-07 08:33:00,
2016-02-07 02:38:00,31.6,27.0,29.51,SW,214,2.0,6.0,83,0.00,,BKN018,0.00,VWS V15.00,2016-02-07 08:38:00,
2016-02-07 02:43:00,31.6,27.0,29.51,WSW,252,0.0,6.0,83,0.00,,BKN018,0.00,VWS V15.00,2016-02-07 08:43:00,
2016-02-07 02:48:00,31.5,26.9,29.51,WSW,240,3.0,8.0,83,0.00,,BKN018,0.00,VWS V15.00,2016-02-07 08:48:00,
2016-02-07 02:53:00,31.5,26.9,29.51,WSW,240,3.0,8.0,83,0.00,,BKN018,0.00,VWS V15.00,2016-02-07 08:53:00,
2016-02-07 02:58:00,31.6,27.0,29.50,WSW,249,1.0,8.0,83,0.00,,BKN018,0.00,VWS V15.00,2016-02-07 08:58:00,
2016-02-07 03:03:00,31.5,26.9,29.50,WSW,238,0.0,6.0,83,0.00,,BKN018,0.00,VWS V15.00,2016-02-07 09:03:00,
2016-02-07 03:09:00,31.5,26.9,29.50,WSW,247,0.0,7.0,83,0.00,,BKN018,0.00,VWS V15.00,2016-02-07 09:09:00,
2016-02-07 03:14:00,31.8,27.2,29.50,WSW,254,0.0,10.0,83,0.00,,BKN018,0.00,VWS V15.00,2016-02-07 09:14:00,
2016-02-07 03:19:00,32.1,27.2,29.50,West,278,2.0,10.0,82,0.00,,BKN018,0.00,VWS V15.00,2016-02-07 09:19:00,
2016-02-07 03:29:00,32.5,27.3,29.50,WSW,239,0.0,10.0,81,0.00,,BKN018,0.00,VWS V15.00,2016-02-07 09:29:00,
2016-02-07 03:34:00,32.5,27.3,29.50,WSW,243,1.0,7.0,81,0.00,,BKN018,0.00,VWS V15.00,2016-02-07 09:34:00,
2016-02-07 03:39:00,32.5,27.0,29.50,West,262,3.0,7.0,80,0.00,,BKN018,0.00,VWS V15.00,2016-02-07 09:39:00,
2016-02-07 03:49:00,32.9,27.1,29.50,West,273,1.0,9.0,79,0.00,,BKN018,0.00,VWS V15.00,2016-02-07 09:49:00,
2016-02-07 03:54:00,33.2,27.7,29.50,West,267,8.0,10.0,80,0.00,,BKN018,0.00,VWS V15.00,2016-02-07 09:54:00,
2016-02-07 03:59:00,33.7,27.9,29.49,West,270,4.0,10.0,79,0.00,,BKN018,0.00,VWS V15.00,2016-02-07 09:59:00,
2016-02-07 04:04:00,34.1,28.3,29.49,WSW,253,5.0,9.0,79,0.00,,BKN018,0.00,VWS V15.00,2016-02-07 10:04:00,
2016-02-07 04:09:00,34.1,28.3,29.49,West,270,3.0,9.0,79,0.00,,BKN018,0.00,VWS V15.00,2016-02-07 10:09:00,
2016-02-07 04:14:00,34.3,28.5,29.49,West,270,5.0,9.0,79,0.00,,BKN018,0.00,VWS V15.00,2016-02-07 10:14:00,
2016-02-07 04:19:00,34.3,28.5,29.49,West,262,3.0,9.0,79,0.00,,BKN018,0.00,VWS V15.00,2016-02-07 10:19:00,
2016-02-07 04:24:00,34.3,28.5,29.49,West,269,0.0,9.0,79,0.00,,BKN018,0.00,VWS V15.00,2016-02-07 10:24:00,
2016-02-07 04:29:00,34.3,28.5,29.49,West,270,2.0,9.0,79,0.00,,BKN018,0.00,VWS V15.00,2016-02-07 10:29:00,
2016-02-07 04:34:00,34.3,28.5,29.49,West,270,0.0,6.0,79,0.00,,BKN018,0.00,VWS V15.00,2016-02-07 10:34:00,
2016-02-07 04:44:00,34.3,28.5,29.49,West,263,2.0,8.0,79,0.00,,BKN018,0.00,VWS V15.00,2016-02-07 10:44:00,
2016-02-07 04:49:00,34.1,28.6,29.49,West,270,0.0,8.0,80,0.00,,BKN018,0.00,VWS V15.00,2016-02-07 10:49:00,
2016-02-07 04:54:00,34.1,28.6,29.49,West,267,0.0,8.0,80,0.00,,BKN018,0.00,VWS V15.00,2016-02-07 10:54:00,
2016-02-07 04:59:00,34.1,28.6,29.49,West,259,0.0,8.0,80,0.00,,BKN018,0.00,VWS V15.00,2016-02-07 10:59:00,
2016-02-07 05:04:00,34.1,28.6,29.49,West,260,3.0,6.0,80,0.00,,BKN018,0.00,VWS V15.00,2016-02-07 11:04:00,
2016-02-07 05:09:00,34.3,29.1,29.49,West,259,3.0,7.0,81,0.00,,BKN018,0.00,VWS V15.00,2016-02-07 11:09:00,
2016-02-07 05:14:00,34.1,28.6,29.48,West,263,6.0,7.0,80,0.00,,BKN018,0.00,VWS V15.00,2016-02-07 11:14:00,
2016-02-07 05:24:00,34.4,28.6,29.48,WSW,254,5.0,10.0,79,0.00,,BKN018,0.00,VWS V15.00,2016-02-07 11:24:00,
2016-02-07 05:29:00,34.3,28.5,29.48,West,270,1.0,6.0,79,0.00,,BKN018,0.00,VWS V15.00,2016-02-07 11:29:00,
2016-02-07 05:34:00,34.4,28.3,29.48,West,259,5.0,11.0,78,0.00,,BKN018,0.00,VWS V15.00,2016-02-07 11:34:00,
2016-02-07 05:40:00,34.6,28.5,29.48,WSW,254,7.0,11.0,78,0.00,,BKN018,0.00,VWS V15.00,2016-02-07 11:40:00,
2016-02-07 05:45:00,34.9,28.4,29.48,WSW,246,0.0,16.0,77,0.00,,BKN018,0.00,VWS V15.00,2016-02-07 11:45:00,
2016-02-07 05:50:00,35.3,28.5,29.48,SW,219,6.0,16.0,76,0.00,,BKN018,0.00,VWS V15.00,2016-02-07 11:50:00,
2016-02-07 05:55:00,35.5,28.4,29.48,West,270,3.0,16.0,75,0.00,,BKN018,0.00,VWS V15.00,2016-02-07 11:55:00,
2016-02-07 06:00:00,35.6,28.1,29.48,West,276,11.0,11.0,74,0.00,,BKN018,0.00,VWS V15.00,2016-02-07 12:00:00,
2016-02-07 06:05:00,35.8,28.3,29.48,West,262,4.0,17.0,74,0.00,,BKN018,0.00,VWS V15.00,2016-02-07 12:05:00,
2016-02-07 06:15:00,35.9,28.4,29.49,West,266,8.0,17.0,74,0.00,,BKN018,0.00,VWS V15.00,2016-02-07 12:15:00,
2016-02-07 06:20:00,35.9,28.1,29.49,West,263,7.0,17.0,73,0.00,,BKN018,0.00,VWS V15.00,2016-02-07 12:20:00,
2016-02-07 06:25:00,36.0,28.2,29.49,West,271,2.0,17.0,73,0.00,,BKN018,0.00,VWS V15.00,2016-02-07 12:25:00,
2016-02-07 06:30:00,36.0,28.2,29.48,West,270,7.0,16.0,73,0.00,,BKN018,0.00,VWS V15.00,2016-02-07 12:30:00,
2016-02-07 06:35:00,36.2,28.4,29.48,West,271,7.0,16.0,73,0.00,,BKN018,0.00,VWS V15.00,2016-02-07 12:35:00,
2016-02-07 06:40:00,36.3,28.1,29.48,West,270,5.0,17.0,72,0.00,,BKN018,0.00,VWS V15.00,2016-02-07 12:40:00,
2016-02-07 06:45:00,36.3,28.1,29.48,West,270,3.0,17.0,72,0.00,,BKN018,0.00,VWS V15.00,2016-02-07 12:45:00,
2016-02-07 06:50:00,36.2,28.1,29.48,West,267,1.0,17.0,72,0.00,,BKN018,0.00,VWS V15.00,2016-02-07 12:50:00,
2016-02-07 06:55:00,36.3,28.1,29.48,West,264,1.0,17.0,72,0.00,,BKN018,0.00,VWS V15.00,2016-02-07 12:55:00,
2016-02-07 07:00:00,36.5,28.4,29.48,West,270,5.0,7.0,72,0.00,,BKN018,0.00,VWS V15.00,2016-02-07 13:00:00,
2016-02-07 07:05:00,36.6,28.1,29.48,West,266,12.0,19.0,71,0.00,,BKN018,0.00,VWS V15.00,2016-02-07 13:05:00,
2016-02-07 07:10:00,36.6,27.8,29.48,West,270,13.0,19.0,70,0.00,,BKN018,0.00,VWS V15.00,2016-02-07 13:10:00,
2016-02-07 07:15:00,36.6,27.8,29.48,West,270,6.0,19.0,70,0.00,,BKN018,0.00,VWS V15.00,2016-02-07 13:15:00,
2016-02-07 07:20:00,36.5,27.7,29.48,West,260,6.0,19.0,70,0.00,,BKN018,0.00,VWS V15.00,2016-02-07 13:20:00,
2016-02-07 07:25:00,36.2,27.4,29.48,West,264,6.0,19.0,70,0.00,,BKN018,0.00,VWS V15.00,2016-02-07 13:25:00,
2016-02-07 07:30:00,36.2,27.4,29.48,West,266,10.0,13.0,70,0.00,,BKN018,0.00,VWS V15.00,2016-02-07 13:30:00,
2016-02-07 07:35:00,36.0,27.2,29.48,West,269,1.0,19.0,70,0.00,,BKN018,0.00,VWS V15.00,2016-02-07 13:35:00,
2016-02-07 07:40:00,36.0,27.2,29.48,West,273,5.0,19.0,70,0.00,,BKN018,0.00,VWS V15.00,2016-02-07 13:40:00,
2016-02-07 07:45:00,36.0,27.2,29.48,West,270,2.0,19.0,70,0.00,,BKN018,0.00,VWS V15.00,2016-02-07 13:45:00,
2016-02-07 07:50:00,35.9,27.1,29.48,WNW,291,8.0,19.0,70,0.00,,BKN018,0.00,VWS V15.00,2016-02-07 13:50:00,
2016-02-07 07:55:00,35.9,26.7,29.48,West,271,10.0,19.0,69,0.00,,BKN018,0.00,VWS V15.00,2016-02-07 13:55:00,
2016-02-07 08:00:00,36.0,26.8,29.49,West,270,6.0,7.0,69,0.00,,BKN018,0.00,VWS V15.00,2016-02-07 14:00:00,
2016-02-07 08:05:00,36.0,26.5,29.49,West,270,5.0,18.0,68,0.00,,BKN018,0.00,VWS V15.00,2016-02-07 14:05:00,
2016-02-07 08:10:00,36.2,26.7,29.49,West,270,10.0,18.0,68,0.00,,BKN018,0.00,VWS V15.00,2016-02-07 14:10:00,
2016-02-07 08:15:00,36.2,26.7,29.49,WNW,284,2.0,18.0,68,0.00,,BKN018,0.00,VWS V15.00,2016-02-07 14:15:00,
2016-02-07 08:20:00,36.0,26.1,29.49,WNW,290,5.0,18.0,67,0.00,,BKN018,0.00,VWS V15.00,2016-02-07 14:20:00,
2016-02-07 08:25:00,36.2,26.3,29.49,West,270,3.0,18.0,67,0.00,,BKN018,0.00,VWS V15.00,2016-02-07 14:25:00,
2016-02-07 08:30:00,36.2,26.0,29.49,WSW,254,12.0,14.0,66,0.00,,BKN018,0.00,VWS V15.00,2016-02-07 14:30:00,
2016-02-07 08:36:00,36.2,26.0,29.49,WNW,294,5.0,16.0,66,0.00,,BKN018,0.00,VWS V15.00,2016-02-07 14:36:00,
2016-02-07 08:41:00,36.2,26.0,29.49,WNW,297,1.0,16.0,66,0.00,,BKN018,0.00,VWS V15.00,2016-02-07 14:41:00,
2016-02-07 08:46:00,36.2,26.0,29.49,WNW,288,8.0,16.0,66,0.00,,BKN018,0.00,VWS V15.00,2016-02-07 14:46:00,
2016-02-07 08:51:00,36.3,26.0,29.49,West,276,10.0,17.0,66,0.00,,BKN018,0.00,VWS V15.00,2016-02-07 14:51:00,
2016-02-07 08:56:00,36.2,26.0,29.49,West,266,7.0,17.0,66,0.00,,BKN018,0.00,VWS V15.00,2016-02-07 14:56:00,
2016-02-07 09:01:00,36.3,26.0,29.49,WNW,283,6.0,17.0,66,0.00,,BKN018,0.00,VWS V15.00,2016-02-07 15:01:00,
2016-02-07 09:06:00,36.3,26.0,29.49,West,276,11.0,17.0,66,0.00,,BKN018,0.00,VWS V15.00,2016-02-07 15:06:00,
2016-02-07 09:11:00,36.2,26.0,29.49,WSW,245,1.0,17.0,66,0.00,,BKN018,0.00,VWS V15.00,2016-02-07 15:11:00,
2016-02-07 09:16:00,36.0,25.8,29.48,West,274,2.0,19.0,66,0.00,,BKN018,0.00,VWS V15.00,2016-02-07 15:16:00,
2016-02-07 09:21:00,35.9,25.7,29.48,West,269,9.0,19.0,66,0.00,,BKN018,0.00,VWS V15.00,2016-02-07 15:21:00,
2016-02-07 09:26:00,36.0,25.8,29.48,West,269,7.0,19.0,66,0.00,,BKN018,0.00,VWS V15.00,2016-02-07 15:26:00,
2016-02-07 09:31:00,36.0,25.8,29.48,West,276,3.0,11.0,66,0.01,,BKN018,0.01,VWS V15.00,2016-02-07 15:31:00,